Champlain, Canada
Current Conditions -  °F | °C
As of 5:34 AM on Friday 24 Oct 2014 (Local Time) from CYRQ Reporting Station
Overcast Overcast  
Wind Chill: 40°   Ceiling: 4100
Heat Index: 43°   Visibility: 9mi
Dew Point: 41°   Wind: 5mph
Humidity: 93%   Direction: 30°NNE
Pressure: 29.9"   Gusts: NA
Location:  46.43°N, 72.35°W
Report Text: CYRQ 240934Z AUTO 03004KT 9SM BKN041 BKN060 OVC081 06/05 A2990 RMK SLP126
Loading
Personal Weather Stations






























Interactive Weather Map
Tropical Storm Tracking
New forecast layout! Learn more

10-Day Weather Forecast

Advertisements
Track Severe Weather on mobile